Flight ASXV34

  • Submitted By: Krzysztof H. Blaszkow
  • Departure Airport: La Gomera Airport (GCGM)
  • Arrival Airport: Gran Canaria (GCLP)
  • Aircraft: C 172 (LC-LXZ)
  • Flight Time: 01.13.55
  • Date Submitted: 07/24/2017
  • Route: GCMGS2 GCTSW GCTSN GCTSE GCLPS
  • Status: Accepted
Flight Details
Gross Revenue:
(3 load / € 300.00 per unit
€ 900.00
Fuel Cost:
(29.0299 fuel used @ 0.45 / unit)
€ 13.06

Additional Log Information:

View Log

[19:19] - Cessna Skyhawk 172SP Paint2
[19:19] - Flight ASXV34 is ready to depart GCGM with a final destination of GCLP.
[19:19] - Parking Brake Applied
[19:19] - Beacon Light ON
[19:19] - Boarding
[19:20] - ADF1 - 376.0
[19:20] - ADF2 - 240.0
[19:20] - NAV1 - 116.00
[19:20] - NAV2 - 112.90
[19:20] - COM1 - 122.80
[19:20] - COM2 - 123.45
[19:20] - Transponder - 7000
[19:24] - Engine 1 Started
[19:24] - Taxi Lights ON 3AGL
[19:24] - Navigation Lights ON 3AGL
[19:24] - Parking Brake Released
[19:26] - Flaps to position 1
[19:26] - Strobe Lights ON 3AGL
[19:26] - Landing Lights ON 3AGL
[19:26] - Taxi Lights OFF 3AGL
[19:28] - Taxiing to Runway
[19:28] - Taking Off with 3 passengers on board
[19:28] - Take off at 75kts, with a pitch of 3deg and 148lbs of fuel on board
[19:28] - Wind Heading 298 | Wind Speed 7kts | Temperature 23 deg C
[19:28] - METAR Departure: GCGM 241800Z AUTO 22005KT 190V290 9999 NCD 24/19 Q1017 RMK R09/19003KT 140V270 ARP/22004KT 170V330

[19:28] - Flaps to position 0 at 722ft and 78kts
[19:28] - Climbing to TOC
[19:29] - TOC reached
[19:29] - Cruise started
[19:31] - ADF1 - 317.0
[19:32] - Landing Lights OFF 2205AGL
[19:53] - AutoPilot Engaged at 942AGL
[19:59] - AutoPilot Disengaged at 3481AGL
[20:01] - ADF1 - 365.0
[20:22] - Landing Lights ON 880AGL
[20:24] - Flaps to position 1 at 896ft and 105kts
[20:25] - Flaps to position 2 at 801ft and 83kts
[20:25] - Flaps to position 3 at 797ft and 84kts
[20:27] - Landed at -82fpm. With 86lbs of fuel onboard and a pitch angle of 0deg.
[20:27] - Wind Heading 357 | Wind Speed 12kts | Temperature 26 deg C
[20:27] - METAR Arrival: GCLP 241900Z 01027KT 9999 FEW020 25/18 Q1016 WS ALL RWY NOSIG

[20:27] - Taxiing to Gate
[20:27] - Landing Lights OFF 3AGL
[20:27] - Taxi Lights ON 3AGL
[20:27] - Strobe Lights OFF 3AGL
[20:27] - Flaps to position 2
[20:27] - Flaps to position 0
[20:33] - Parking Brake Applied
[20:33] - Arrived safely at GCLP. We hope you enjoyed your flight!
[20:33] - Taxi Lights OFF 3AGL
[20:33] - Navigation Lights OFF 3AGL
[20:33] - Engine 1 Stopped
[20:34] - Cessna Skyhawk 172SP Paint2
[20:34] - MaxSim Rate: 1x
[20:34] - SiouxAcars ver: 1.0.1.2

Comments

Commenter Comment
Krzysztof H. Blaszkow GCLP 241900Z 01027KT 9999 FEW020 25/18 Q1016 WS ALL RWY NOSIG + true aloft GCLP

Route Map